Time;durP1;ratioP1;P1;durP2;ratioP2;P2;SDS_P1;SDS_P2;PMS_P1;PMS_P2;Temp;Humidity;BMP_temperature;BMP_pressure;BME280_temperature;BME280_humidity;BME280_pressure;Samples;Min_cycle;Max_cycle;Signal;HPM_P1;HPM_P2
2022/04/11 00:01:15;;;;;;;8.50;3.97;;;;;;;;;;5112517;28;20027;-68
2022/04/11 00:03:41;;;;;;;6.97;3.27;;;;;;;;;;5113020;28;20043;-69
2022/04/11 00:06:08;;;;;;;7.03;3.90;;;;;;;;;;5112980;28;20378;-69
2022/04/11 00:08:35;;;;;;;35.13;6.03;;;;;;;;;;5112249;28;20030;-69
2022/04/11 00:11:01;;;;;;;34.00;9.80;;;;;;;;;;5110853;28;20020;-69
2022/04/11 00:13:28;;;;;;;20.37;6.40;;;;;;;;;;5107927;28;20034;-69
2022/04/11 00:15:55;;;;;;;13.67;5.83;;;;;;;;;;5107570;28;20033;-69
2022/04/11 00:18:21;;;;;;;9.70;4.57;;;;;;;;;;5107581;28;20011;-69
2022/04/11 00:20:49;;;;;;;13.57;5.30;;;;;;;;;;5108776;28;20559;-68
2022/04/11 00:23:15;;;;;;;14.90;5.40;;;;;;;;;;5112976;28;20080;-68
2022/04/11 00:25:42;;;;;;;14.20;4.77;;;;;;;;;;5112946;28;20501;-68
2022/04/11 00:28:09;;;;;;;16.43;6.33;;;;;;;;;;5112660;28;20024;-69
2022/04/11 00:30:36;;;;;;;11.80;5.23;;;;;;;;;;5111869;28;20114;-68
2022/04/11 00:33:03;;;;;;;18.50;6.30;;;;;;;;;;5111485;28;20353;-68
2022/04/11 00:35:30;;;;;;;8.30;5.03;;;;;;;;;;5107409;28;20026;-68
2022/04/11 00:37:57;;;;;;;13.37;5.10;;;;;;;;;;5107354;28;20073;-68
2022/04/11 00:40:23;;;;;;;12.13;4.90;;;;;;;;;;5107855;28;20023;-68
2022/04/11 00:42:50;;;;;;;9.53;6.00;;;;;;;;;;5107995;28;20028;-68
2022/04/11 00:45:17;;;;;;;10.13;5.07;;;;;;;;;;5112560;28;20031;-68
2022/04/11 00:47:45;;;;;;;8.53;5.37;;;;;;;;;;5112575;28;20355;-68
2022/04/11 00:50:13;;;;;;;7.53;4.20;;;;;;;;;;5112395;28;20122;-69
2022/04/11 00:52:41;;;;;;;7.50;3.97;;;;;;;;;;5112208;28;20027;-69
2022/04/11 00:55:08;;;;;;;10.83;5.80;;;;;;;;;;5112239;28;20092;-69
2022/04/11 00:57:35;;;;;;;14.73;5.77;;;;;;;;;;5107499;28;20024;-68
2022/04/11 01:00:03;;;;;;;10.80;5.60;;;;;;;;;;5107237;28;20038;-68
2022/04/11 01:02:29;;;;;;;10.63;5.73;;;;;;;;;;5107216;28;21660;-68
2022/04/11 01:04:56;;;;;;;10.63;5.87;;;;;;;;;;5107221;28;20027;-70
2022/04/11 01:07:23;;;;;;;12.10;4.83;;;;;;;;;;5112252;28;20153;-70
2022/04/11 01:09:49;;;;;;;8.67;5.07;;;;;;;;;;5112058;28;20031;-70
2022/04/11 01:12:17;;;;;;;10.07;5.80;;;;;;;;;;5112843;28;20035;-70
2022/04/11 01:14:44;;;;;;;8.50;4.90;;;;;;;;;;5112588;28;20020;-70
2022/04/11 01:17:11;;;;;;;5.83;4.40;;;;;;;;;;5112330;28;20020;-70
2022/04/11 01:19:37;;;;;;;9.93;5.03;;;;;;;;;;5107611;28;20019;-70
2022/04/11 01:22:04;;;;;;;12.03;4.37;;;;;;;;;;5111134;28;20438;-69
2022/04/11 01:24:32;;;;;;;7.57;4.60;;;;;;;;;;5110792;28;20020;-71
2022/04/11 01:26:58;;;;;;;9.00;4.57;;;;;;;;;;5110678;28;20023;-71
2022/04/11 01:29:25;;;;;;;11.27;4.70;;;;;;;;;;5114472;28;20410;-71
2022/04/11 01:31:52;;;;;;;11.53;4.77;;;;;;;;;;5115850;28;20028;-73
2022/04/11 01:34:18;;;;;;;7.17;4.57;;;;;;;;;;5115675;28;20118;-68
2022/04/11 01:36:45;;;;;;;9.07;4.50;;;;;;;;;;5115732;28;20024;-72
2022/04/11 01:39:12;;;;;;;7.17;4.23;;;;;;;;;;5115717;28;20051;-71
2022/04/11 01:41:39;;;;;;;7.27;4.47;;;;;;;;;;5111192;28;20047;-72
2022/04/11 01:44:05;;;;;;;6.93;4.77;;;;;;;;;;5110352;28;20498;-72
2022/04/11 01:46:32;;;;;;;7.57;4.70;;;;;;;;;;5110489;28;20027;-72
2022/04/11 01:48:59;;;;;;;7.30;4.30;;;;;;;;;;5110394;28;20034;-70
2022/04/11 01:51:25;;;;;;;6.97;4.60;;;;;;;;;;5113514;28;20027;-69
2022/04/11 01:53:52;;;;;;;7.83;4.63;;;;;;;;;;5115309;28;20125;-72
2022/04/11 01:56:19;;;;;;;9.33;4.73;;;;;;;;;;5115401;28;20498;-70
2022/04/11 01:58:45;;;;;;;8.07;5.00;;;;;;;;;;5115454;28;20054;-72
2022/04/11 02:01:16;;;;;;;12.30;5.20;;;;;;;;;;5114769;28;20103;-72
2022/04/11 02:03:45;;;;;;;10.37;4.53;;;;;;;;;;5111616;28;20474;-71
2022/04/11 02:06:12;;;;;;;13.00;4.63;;;;;;;;;;5109992;28;20378;-69
2022/04/11 02:08:38;;;;;;;8.57;4.47;;;;;;;;;;5110289;28;20024;-72
2022/04/11 02:11:05;;;;;;;8.40;4.57;;;;;;;;;;5109769;28;20107;-75
2022/04/11 02:13:32;;;;;;;6.53;4.33;;;;;;;;;;5112645;28;20023;-72
2022/04/11 02:15:59;;;;;;;10.30;4.40;;;;;;;;;;5114681;28;20019;-72
2022/04/11 02:18:26;;;;;;;5.20;3.50;;;;;;;;;;5115003;28;20027;-72
2022/04/11 02:20:53;;;;;;;6.90;3.83;;;;;;;;;;5115015;28;20115;-72
2022/04/11 02:23:20;;;;;;;6.43;3.97;;;;;;;;;;5114609;28;20076;-73
2022/04/11 02:25:47;;;;;;;10.43;4.57;;;;;;;;;;5111590;28;20024;-69
2022/04/11 02:28:13;;;;;;;8.20;4.43;;;;;;;;;;5108558;28;20406;-74
2022/04/11 02:30:40;;;;;;;9.70;5.03;;;;;;;;;;5109692;28;20444;-74
2022/04/11 02:33:07;;;;;;;7.83;4.03;;;;;;;;;;5108704;28;20024;-73
2022/04/11 02:35:34;;;;;;;9.53;4.13;;;;;;;;;;5112301;28;20069;-73
2022/04/11 02:38:01;;;;;;;7.73;4.30;;;;;;;;;;5113999;28;20482;-72
2022/04/11 02:40:27;;;;;;;9.97;4.83;;;;;;;;;;5114591;28;20024;-71
2022/04/11 02:42:54;;;;;;;6.53;4.17;;;;;;;;;;5114641;28;20028;-72
2022/04/11 02:45:21;;;;;;;10.67;4.20;;;;;;;;;;5114120;28;20098;-74
2022/04/11 02:47:48;;;;;;;15.90;4.90;;;;;;;;;;5111886;28;20017;-73
2022/04/11 02:50:14;;;;;;;8.97;4.57;;;;;;;;;;5108820;28;20038;-73
2022/04/11 02:52:41;;;;;;;8.33;4.00;;;;;;;;;;5109157;28;20026;-73
2022/04/11 02:55:08;;;;;;;6.10;3.77;;;;;;;;;;5109276;28;20027;-74
2022/04/11 02:57:38;;;;;;;9.53;3.87;;;;;;;;;;5110624;28;20027;-72
2022/04/11 03:00:06;;;;;;;11.43;3.93;;;;;;;;;;5114237;28;20056;-74
2022/04/11 03:02:33;;;;;;;8.13;3.97;;;;;;;;;;5113954;28;20027;-75
2022/04/11 03:05:00;;;;;;;9.17;4.27;;;;;;;;;;5114046;28;20027;-70
2022/04/11 03:07:27;;;;;;;8.23;4.10;;;;;;;;;;5113427;28;20024;-72
2022/04/11 03:09:54;;;;;;;7.07;3.57;;;;;;;;;;5111684;28;20136;-70
2022/04/11 03:12:21;;;;;;;7.50;4.03;;;;;;;;;;5108893;28;20026;-70
2022/04/11 03:14:51;;;;;;;9.47;4.53;;;;;;;;;;5108702;28;20501;-71
2022/04/11 03:17:18;;;;;;;5.53;3.90;;;;;;;;;;5088459;28;20040;-73
2022/04/11 03:19:45;;;;;;;6.27;4.20;;;;;;;;;;5089873;28;20055;-69
2022/04/11 03:22:12;;;;;;;7.87;4.17;;;;;;;;;;5092898;28;20027;-72
2022/04/11 03:24:40;;;;;;;11.93;4.60;;;;;;;;;;5093508;28;20024;-70
2022/04/11 03:27:06;;;;;;;13.93;5.10;;;;;;;;;;5103382;28;20027;-71
2022/04/11 03:29:33;;;;;;;8.03;4.40;;;;;;;;;;5113169;28;20031;-71
2022/04/11 03:32:00;;;;;;;9.93;4.97;;;;;;;;;;5111076;28;21341;-71
2022/04/11 03:34:26;;;;;;;8.60;4.00;;;;;;;;;;5108387;28;20027;-70
2022/04/11 03:36:53;;;;;;;6.07;4.20;;;;;;;;;;5108315;28;20026;-68
2022/04/11 03:39:20;;;;;;;13.03;4.90;;;;;;;;;;5108078;28;20555;-70
2022/04/11 03:41:47;;;;;;;6.87;4.13;;;;;;;;;;5109272;28;20424;-73
2022/04/11 03:44:13;;;;;;;7.37;4.23;;;;;;;;;;5112404;28;20489;-69
2022/04/11 03:46:40;;;;;;;10.03;5.23;;;;;;;;;;5113409;28;20023;-69
2022/04/11 03:49:07;;;;;;;10.40;4.90;;;;;;;;;;5113302;28;20070;-69
2022/04/11 03:51:34;;;;;;;12.27;5.33;;;;;;;;;;5112991;28;20085;-70
2022/04/11 03:54:01;;;;;;;9.33;4.97;;;;;;;;;;5111965;28;20491;-69
2022/04/11 03:56:27;;;;;;;8.03;4.50;;;;;;;;;;5107617;28;20031;-73
2022/04/11 03:58:54;;;;;;;4.60;3.50;;;;;;;;;;5108039;28;20028;-70
2022/04/11 04:01:21;;;;;;;10.23;4.47;;;;;;;;;;5107317;28;20527;-69
2022/04/11 04:03:48;;;;;;;7.40;4.70;;;;;;;;;;5108185;28;20019;-70
2022/04/11 04:06:14;;;;;;;6.43;4.03;;;;;;;;;;5112465;28;20594;-74
2022/04/11 04:08:41;;;;;;;6.93;4.30;;;;;;;;;;5113191;28;20035;-73
2022/04/11 04:11:09;;;;;;;10.90;4.97;;;;;;;;;;5111500;28;20028;-72
2022/04/11 04:13:36;;;;;;;8.40;4.40;;;;;;;;;;5112660;28;20020;-67
2022/04/11 04:16:02;;;;;;;9.17;4.30;;;;;;;;;;5112318;28;20020;-68
2022/04/11 04:18:29;;;;;;;7.83;4.73;;;;;;;;;;5107872;28;20034;-68
2022/04/11 04:20:56;;;;;;;7.30;3.83;;;;;;;;;;5107024;28;20471;-69
2022/04/11 04:23:22;;;;;;;8.33;5.00;;;;;;;;;;5107801;28;20404;-69
2022/04/11 04:25:49;;;;;;;6.80;5.00;;;;;;;;;;5107623;28;20109;-69
2022/04/11 04:28:17;;;;;;;10.60;5.20;;;;;;;;;;5112322;28;20055;-69
2022/04/11 04:30:47;;;;;;;7.00;4.30;;;;;;;;;;5112616;28;20043;-67
2022/04/11 04:33:14;;;;;;;5.80;3.80;;;;;;;;;;5112746;28;20047;-69
2022/04/11 04:35:41;;;;;;;7.97;4.00;;;;;;;;;;5112822;28;20054;-69
2022/04/11 04:38:08;;;;;;;7.07;3.40;;;;;;;;;;5112872;28;20019;-69
2022/04/11 04:40:35;;;;;;;8.20;4.33;;;;;;;;;;5107797;28;20044;-69
2022/04/11 04:43:01;;;;;;;14.13;5.20;;;;;;;;;;5107581;28;20050;-70
2022/04/11 04:45:28;;;;;;;7.37;4.97;;;;;;;;;;5107137;28;20042;-70
2022/04/11 04:47:55;;;;;;;8.70;4.10;;;;;;;;;;5107560;28;20031;-66
2022/04/11 04:50:22;;;;;;;6.90;4.47;;;;;;;;;;5111537;28;20054;-70
2022/04/11 04:52:48;;;;;;;8.17;4.30;;;;;;;;;;5112626;28;20335;-70
2022/04/11 04:55:15;;;;;;;5.00;3.30;;;;;;;;;;5114352;28;20024;-69
2022/04/11 04:57:42;;;;;;;5.33;3.60;;;;;;;;;;5116339;28;20485;-70
2022/04/11 05:00:09;;;;;;;10.43;4.67;;;;;;;;;;5116631;28;20020;-69
2022/04/11 05:02:38;;;;;;;6.23;3.93;;;;;;;;;;5111266;28;20091;-69
2022/04/11 05:05:09;;;;;;;7.93;4.37;;;;;;;;;;5111550;28;20096;-68
2022/04/11 05:07:36;;;;;;;5.27;3.50;;;;;;;;;;5111477;28;20024;-65
2022/04/11 05:10:06;;;;;;;8.13;4.03;;;;;;;;;;5111174;28;20061;-67
2022/04/11 05:12:39;;;;;;;7.77;3.97;;;;;;;;;;5115045;28;20148;-68
2022/04/11 05:15:06;;;;;;;6.47;3.47;;;;;;;;;;5115371;28;20036;-71
2022/04/11 05:17:33;;;;;;;5.97;3.73;;;;;;;;;;5116313;28;20035;-68
2022/04/11 05:20:00;;;;;;;6.70;3.17;;;;;;;;;;5115904;28;20043;-67
2022/04/11 05:22:26;;;;;;;9.77;4.77;;;;;;;;;;5116092;28;20020;-68
2022/04/11 05:24:53;;;;;;;5.97;3.77;;;;;;;;;;5111441;28;20478;-67
2022/04/11 05:27:20;;;;;;;7.03;4.30;;;;;;;;;;5110231;28;20120;-68
2022/04/11 05:29:46;;;;;;;6.47;3.83;;;;;;;;;;5109962;28;20019;-70
2022/04/11 05:32:13;;;;;;;7.00;3.97;;;;;;;;;;5108547;28;20031;-71
2022/04/11 05:34:40;;;;;;;7.10;3.90;;;;;;;;;;5113498;28;20023;-70
2022/04/11 05:37:06;;;;;;;10.37;4.37;;;;;;;;;;5115425;28;20080;-70
2022/04/11 05:39:33;;;;;;;7.97;4.37;;;;;;;;;;5115319;28;20031;-70
2022/04/11 05:42:00;;;;;;;12.27;4.50;;;;;;;;;;5114806;28;20502;-70
2022/04/11 05:44:27;;;;;;;9.93;4.23;;;;;;;;;;5115445;28;20020;-70
2022/04/11 05:46:53;;;;;;;6.20;3.50;;;;;;;;;;5111688;28;20032;-70
2022/04/11 05:49:21;;;;;;;9.17;3.90;;;;;;;;;;5110033;28;20059;-71
2022/04/11 05:51:47;;;;;;;6.23;3.07;;;;;;;;;;5110314;28;20044;-70
2022/04/11 05:54:14;;;;;;;7.37;3.77;;;;;;;;;;5110236;28;20824;-70
2022/04/11 05:56:41;;;;;;;5.63;4.00;;;;;;;;;;5113290;28;20501;-70
2022/04/11 05:59:08;;;;;;;7.57;3.53;;;;;;;;;;5115464;28;20059;-70
2022/04/11 06:01:40;;;;;;;5.80;3.13;;;;;;;;;;5115395;28;20024;-69
2022/04/11 06:04:07;;;;;;;5.20;3.40;;;;;;;;;;5115243;28;20031;-72
2022/04/11 06:06:33;;;;;;;8.97;3.80;;;;;;;;;;5114091;28;20789;-70
2022/04/11 06:09:00;;;;;;;9.10;4.20;;;;;;;;;;5111883;28;20110;-70
2022/04/11 06:11:28;;;;;;;8.67;3.80;;;;;;;;;;5109262;28;20097;-70
2022/04/11 06:13:55;;;;;;;4.30;2.70;;;;;;;;;;5110021;28;20030;-70
2022/04/11 06:16:22;;;;;;;6.50;3.83;;;;;;;;;;5109725;28;20027;-70
2022/04/11 06:18:48;;;;;;;13.83;3.60;;;;;;;;;;5112613;28;20050;-69
2022/04/11 06:21:15;;;;;;;10.00;3.47;;;;;;;;;;5114628;28;20030;-72
2022/04/11 06:23:41;;;;;;;6.93;4.40;;;;;;;;;;5114698;28;20068;-70
2022/04/11 06:26:08;;;;;;;7.27;3.80;;;;;;;;;;5115212;28;20034;-69
2022/04/11 06:28:35;;;;;;;7.80;3.70;;;;;;;;;;5114750;28;20019;-70
2022/04/11 06:31:01;;;;;;;11.00;4.43;;;;;;;;;;5093725;28;20383;-70
2022/04/11 06:33:28;;;;;;;6.33;3.80;;;;;;;;;;5109202;28;20020;-69
2022/04/11 06:35:55;;;;;;;8.83;4.63;;;;;;;;;;5109385;28;20055;-69
2022/04/11 06:38:21;;;;;;;5.83;3.50;;;;;;;;;;5109432;28;20023;-70
2022/04/11 06:40:49;;;;;;;8.40;4.37;;;;;;;;;;5111216;28;20095;-70
2022/04/11 06:43:16;;;;;;;6.70;4.23;;;;;;;;;;5114734;28;20030;-69
2022/04/11 06:45:43;;;;;;;5.17;3.40;;;;;;;;;;5114381;28;20034;-70
2022/04/11 06:48:09;;;;;;;8.87;4.30;;;;;;;;;;5114369;28;20024;-69
2022/04/11 06:50:36;;;;;;;5.30;3.30;;;;;;;;;;5114301;28;20093;-69
2022/04/11 06:53:03;;;;;;;6.43;3.50;;;;;;;;;;5112165;28;20489;-69
2022/04/11 06:55:29;;;;;;;6.50;4.17;;;;;;;;;;5108933;28;20530;-71
2022/04/11 06:57:56;;;;;;;6.40;3.97;;;;;;;;;;5108857;28;20039;-69
2022/04/11 07:00:23;;;;;;;7.47;3.40;;;;;;;;;;5109041;28;20028;-69
2022/04/11 07:02:50;;;;;;;7.93;4.10;;;;;;;;;;5110216;28;20030;-69
2022/04/11 07:05:16;;;;;;;5.13;3.70;;;;;;;;;;5113841;28;20084;-69
2022/04/11 07:07:43;;;;;;;7.77;3.70;;;;;;;;;;5114074;28;20024;-69
2022/04/11 07:10:10;;;;;;;5.70;3.50;;;;;;;;;;5113867;28;20068;-69
2022/04/11 07:12:40;;;;;;;7.27;3.67;;;;;;;;;;5113641;28;20026;-70
2022/04/11 07:15:08;;;;;;;9.20;3.67;;;;;;;;;;5111971;28;20026;-70
2022/04/11 07:17:34;;;;;;;9.10;4.07;;;;;;;;;;5108394;28;20084;-70
2022/04/11 07:20:02;;;;;;;6.20;3.90;;;;;;;;;;5108492;28;20504;-69
2022/04/11 07:22:28;;;;;;;8.60;4.13;;;;;;;;;;5108348;28;20077;-69
2022/04/11 07:24:56;;;;;;;6.40;4.27;;;;;;;;;;5109651;28;20051;-69
2022/04/11 07:27:22;;;;;;;6.67;3.37;;;;;;;;;;5113500;28;20109;-71
2022/04/11 07:29:49;;;;;;;6.47;3.83;;;;;;;;;;5113626;28;20023;-69
2022/04/11 07:32:16;;;;;;;6.30;3.93;;;;;;;;;;5113596;28;20131;-69
2022/04/11 07:34:42;;;;;;;6.37;3.70;;;;;;;;;;5113105;28;20031;-69
2022/04/11 07:37:11;;;;;;;6.90;3.90;;;;;;;;;;5112304;28;20027;-69
2022/04/11 07:39:38;;;;;;;10.30;4.10;;;;;;;;;;5107967;28;20019;-69
2022/04/11 07:42:05;;;;;;;6.97;3.87;;;;;;;;;;5107936;28;20020;-69
2022/04/11 07:44:32;;;;;;;6.27;3.50;;;;;;;;;;5107773;28;20026;-70
2022/04/11 07:46:58;;;;;;;4.80;3.17;;;;;;;;;;5108466;28;20051;-69
2022/04/11 07:49:25;;;;;;;5.70;3.87;;;;;;;;;;5113241;28;20027;-69
2022/04/11 07:51:51;;;;;;;4.63;3.20;;;;;;;;;;5112853;28;20036;-70
2022/04/11 07:54:18;;;;;;;5.27;3.37;;;;;;;;;;5112967;28;20020;-69
2022/04/11 07:56:45;;;;;;;11.23;4.53;;;;;;;;;;5112955;28;20034;-69
2022/04/11 07:59:12;;;;;;;6.30;3.97;;;;;;;;;;5112517;28;20430;-69
2022/04/11 08:01:38;;;;;;;5.87;3.80;;;;;;;;;;5107511;28;20058;-69
2022/04/11 08:04:05;;;;;;;8.17;3.87;;;;;;;;;;5107839;28;20032;-69
2022/04/11 08:06:32;;;;;;;7.20;3.97;;;;;;;;;;5107676;28;20027;-69
2022/04/11 08:08:58;;;;;;;8.53;3.87;;;;;;;;;;5107758;28;20111;-69
2022/04/11 08:11:25;;;;;;;5.20;3.50;;;;;;;;;;5112710;28;20031;-69
2022/04/11 08:13:52;;;;;;;7.00;3.70;;;;;;;;;;5112884;28;20067;-69
2022/04/11 08:16:19;;;;;;;5.40;3.03;;;;;;;;;;5113022;28;20031;-69
2022/04/11 08:18:45;;;;;;;6.97;4.03;;;;;;;;;;5112831;28;20433;-69
2022/04/11 08:21:12;;;;;;;4.73;3.10;;;;;;;;;;5112365;28;20059;-69
2022/04/11 08:23:39;;;;;;;4.77;3.20;;;;;;;;;;5107564;28;20466;-69
2022/04/11 08:26:05;;;;;;;6.17;3.50;;;;;;;;;;5107644;28;20099;-69
2022/04/11 08:28:32;;;;;;;7.23;3.50;;;;;;;;;;5107629;28;20027;-69
2022/04/11 08:30:59;;;;;;;8.60;4.27;;;;;;;;;;5109818;28;20067;-69
2022/04/11 08:33:25;;;;;;;10.30;4.00;;;;;;;;;;5116432;28;20490;-72
2022/04/11 08:35:53;;;;;;;6.77;3.37;;;;;;;;;;5117049;28;20747;-69
2022/04/11 08:38:19;;;;;;;5.23;3.57;;;;;;;;;;5117085;28;20685;-69
2022/04/11 08:40:46;;;;;;;6.97;4.50;;;;;;;;;;5116705;28;20374;-69
2022/04/11 08:43:14;;;;;;;7.60;4.67;;;;;;;;;;5116426;28;20110;-69
2022/04/11 08:45:41;;;;;;;8.13;4.20;;;;;;;;;;5111726;28;20028;-69
2022/04/11 08:48:08;;;;;;;7.77;4.50;;;;;;;;;;5111639;28;20474;-69
2022/04/11 08:50:34;;;;;;;6.77;3.73;;;;;;;;;;5111080;28;20080;-69
2022/04/11 08:53:01;;;;;;;7.50;3.73;;;;;;;;;;5111328;28;20023;-69
2022/04/11 08:55:28;;;;;;;6.43;3.60;;;;;;;;;;5115041;28;20020;-68
2022/04/11 08:57:58;;;;;;;9.73;3.60;;;;;;;;;;5116548;28;20032;-69
2022/04/11 09:00:24;;;;;;;7.33;4.07;;;;;;;;;;5116533;28;20019;-69
2022/04/11 09:02:51;;;;;;;7.07;4.53;;;;;;;;;;5116227;28;20027;-69
2022/04/11 09:05:24;;;;;;;7.70;4.53;;;;;;;;;;5116413;28;20027;-70
2022/04/11 09:07:55;;;;;;;6.17;3.87;;;;;;;;;;5111635;28;20107;-69
2022/04/11 09:10:26;;;;;;;10.67;4.67;;;;;;;;;;5110854;28;20024;-69
2022/04/11 09:12:55;;;;;;;6.87;3.93;;;;;;;;;;5111067;28;20020;-69
2022/04/11 09:15:26;;;;;;;7.33;4.03;;;;;;;;;;5111103;28;20080;-69
2022/04/11 09:17:53;;;;;;;6.97;3.93;;;;;;;;;;5114931;28;20374;-70
2022/04/11 09:20:24;;;;;;;7.43;3.97;;;;;;;;;;5116167;28;20047;-69
2022/04/11 09:22:50;;;;;;;6.77;3.83;;;;;;;;;;5116160;28;20051;-69
2022/04/11 09:25:21;;;;;;;9.10;3.97;;;;;;;;;;5115579;28;20098;-69
2022/04/11 09:27:49;;;;;;;6.77;4.27;;;;;;;;;;5116060;28;20416;-68
2022/04/11 09:30:20;;;;;;;6.97;3.87;;;;;;;;;;5110935;28;20028;-69
2022/04/11 09:33:00;;;;;;;7.50;4.77;;;;;;;;;;5110738;28;20373;-68
2022/04/11 09:35:30;;;;;;;5.70;3.87;;;;;;;;;;5110315;28;20031;-68
2022/04/11 09:38:07;;;;;;;6.63;3.93;;;;;;;;;;5110704;28;20027;-68
2022/04/11 09:40:38;;;;;;;10.33;4.47;;;;;;;;;;5115641;28;20073;-71
2022/04/11 09:43:05;;;;;;;5.67;3.73;;;;;;;;;;5115782;28;20024;-69
2022/04/11 09:45:32;;;;;;;6.60;3.97;;;;;;;;;;5115739;28;20016;-68
2022/04/11 09:47:59;;;;;;;7.27;4.20;;;;;;;;;;5115859;28;20016;-68
2022/04/11 09:50:28;;;;;;;5.37;3.57;;;;;;;;;;5115240;28;20036;-68
2022/04/11 09:53:06;;;;;;;7.43;3.90;;;;;;;;;;5110091;28;20103;-68
2022/04/11 09:55:33;;;;;;;5.47;4.10;;;;;;;;;;5109996;28;20027;-68
2022/04/11 09:58:01;;;;;;;7.47;4.43;;;;;;;;;;5110083;28;20039;-68
2022/04/11 10:00:29;;;;;;;6.60;3.83;;;;;;;;;;5110284;28;20051;-68
2022/04/11 10:03:00;;;;;;;5.93;3.70;;;;;;;;;;5115440;28;20517;-68
2022/04/11 10:05:26;;;;;;;8.40;4.10;;;;;;;;;;5115167;28;20453;-68
2022/04/11 10:07:58;;;;;;;7.97;3.47;;;;;;;;;;5115233;28;20031;-71
2022/04/11 10:10:25;;;;;;;6.40;3.70;;;;;;;;;;5115265;28;20035;-68
2022/04/11 10:12:53;;;;;;;7.40;4.43;;;;;;;;;;5114653;28;20030;-68
2022/04/11 10:15:23;;;;;;;6.63;3.90;;;;;;;;;;5109795;28;20020;-68
2022/04/11 10:17:53;;;;;;;5.43;3.30;;;;;;;;;;5109940;28;20106;-68
2022/04/11 10:20:38;;;;;;;4.77;3.13;;;;;;;;;;5109689;28;20483;-68
2022/04/11 10:23:05;;;;;;;;;;;;;;;;;;5110672;28;20031;-67
2022/04/11 10:25:32;;;;;;;5.93;3.60;;;;;;;;;;5115140;28;19904;-68
2022/04/11 10:28:15;;;;;;;5.70;3.80;;;;;;;;;;5114819;28;20019;-68
2022/04/11 10:30:42;;;;;;;6.40;4.10;;;;;;;;;;5114393;28;20482;-71
2022/04/11 10:33:09;;;;;;;6.07;3.67;;;;;;;;;;5114697;28;20023;-68
2022/04/11 10:35:45;;;;;;;6.93;4.07;;;;;;;;;;5113124;28;20106;-68
2022/04/11 10:38:13;;;;;;;6.93;3.67;;;;;;;;;;5109639;28;20027;-68
2022/04/11 10:40:48;;;;;;;6.90;4.03;;;;;;;;;;5109323;28;20023;-68
2022/04/11 10:43:16;;;;;;;7.40;3.50;;;;;;;;;;5108934;28;20032;-71
2022/04/11 10:46:01;;;;;;;6.80;3.80;;;;;;;;;;5110910;28;20019;-68
2022/04/11 10:48:46;;;;;;;4.80;3.00;;;;;;;;;;5114247;28;20110;-68
2022/04/11 10:51:16;;;;;;;6.00;3.45;;;;;;;;;;5113819;28;20032;-70
2022/04/11 10:54:03;;;;;;;6.57;3.93;;;;;;;;;;5113007;28;20366;-68
2022/04/11 10:56:49;;;;;;;6.43;3.83;;;;;;;;;;5114078;28;20060;-68
2022/04/11 10:59:25;;;;;;;6.57;4.20;;;;;;;;;;5109245;28;20115;-69
2022/04/11 11:01:56;;;;;;;8.03;4.00;;;;;;;;;;5108770;28;20028;-68
2022/04/11 11:04:25;;;;;;;9.10;5.83;;;;;;;;;;5108835;28;20024;-68
2022/04/11 11:07:10;;;;;;;9.27;5.00;;;;;;;;;;5108834;28;20036;-68
2022/04/11 11:09:40;;;;;;;7.20;4.28;;;;;;;;;;5113889;28;20020;-68
2022/04/11 11:12:20;;;;;;;10.70;4.73;;;;;;;;;;5113837;28;20093;-68
2022/04/11 11:14:47;;;;;;;6.77;4.37;;;;;;;;;;5113932;28;20475;-68
2022/04/11 11:17:13;;;;;;;7.90;4.43;;;;;;;;;;5113960;28;20099;-69
2022/04/11 11:19:58;;;;;;;6.77;4.27;;;;;;;;;;5112839;28;20027;-71
2022/04/11 11:22:25;;;;;;;10.48;5.10;;;;;;;;;;5108214;28;20027;-68
2022/04/11 11:25:10;;;;;;;8.10;4.97;;;;;;;;;;5108467;28;20520;-68
2022/04/11 11:27:37;;;;;;;8.40;4.65;;;;;;;;;;5108567;28;20411;-70
2022/04/11 11:30:08;;;;;;;9.00;4.80;;;;;;;;;;5109308;28;20020;-68
2022/04/11 11:32:39;;;;;;;10.63;5.77;;;;;;;;;;5113696;28;20019;-68
2022/04/11 11:35:06;;;;;;;6.57;4.43;;;;;;;;;;5113430;28;20027;-68
2022/04/11 11:37:33;;;;;;;8.17;4.53;;;;;;;;;;5112983;28;20081;-68
2022/04/11 11:40:02;;;;;;;8.87;4.87;;;;;;;;;;5113361;28;20347;-68
2022/04/11 11:42:34;;;;;;;9.97;6.27;;;;;;;;;;5110844;28;20048;-68
2022/04/11 11:45:01;;;;;;;6.67;4.43;;;;;;;;;;5107983;28;20024;-68
2022/04/11 11:47:28;;;;;;;9.93;5.27;;;;;;;;;;5107963;28;20150;-68
2022/04/11 11:50:01;;;;;;;9.93;4.50;;;;;;;;;;5107831;28;20117;-68
2022/04/11 11:52:28;;;;;;;8.00;4.80;;;;;;;;;;5109247;28;20020;-68
2022/04/11 11:54:54;;;;;;;8.63;4.93;;;;;;;;;;5113112;28;20091;-68
2022/04/11 11:57:24;;;;;;;9.13;6.17;;;;;;;;;;5112927;28;20493;-68
2022/04/11 12:00:03;;;;;;;7.93;4.90;;;;;;;;;;5113004;28;20095;-68
2022/04/11 12:05:35;;;;;;;11.67;5.87;;;;;;;;;;5108782;28;20058;-67
2022/04/11 12:08:08;;;;;;;8.63;5.10;;;;;;;;;;5107719;28;20107;-67
2022/04/11 12:10:35;;;;;;;10.37;5.30;;;;;;;;;;5107490;28;20039;-67
2022/04/11 12:13:02;;;;;;;8.97;5.80;;;;;;;;;;5107708;28;20478;-67
2022/04/11 12:15:33;;;;;;;9.37;5.40;;;;;;;;;;5109777;28;20102;-68
2022/04/11 12:18:04;;;;;;;11.03;5.40;;;;;;;;;;5112988;28;20433;-67
2022/04/11 12:20:31;;;;;;;8.37;4.27;;;;;;;;;;5112284;28;20020;-67
2022/04/11 12:23:05;;;;;;;7.00;4.50;;;;;;;;;;5112803;28;20023;-67
2022/04/11 12:25:44;;;;;;;8.55;4.70;;;;;;;;;;5112674;28;20076;-68
2022/04/11 12:28:12;;;;;;;5.93;4.07;;;;;;;;;;5108203;28;20498;-66
2022/04/11 12:30:44;;;;;;;8.63;5.33;;;;;;;;;;5107246;28;20039;-68
2022/04/11 12:33:12;;;;;;;8.70;5.50;;;;;;;;;;5107403;28;20027;-68
2022/04/11 12:35:39;;;;;;;6.83;4.90;;;;;;;;;;5107261;28;20044;-68
2022/04/11 12:38:08;;;;;;;6.90;4.23;;;;;;;;;;5111181;28;20016;-67
2022/04/11 12:40:49;;;;;;;7.47;4.60;;;;;;;;;;5111333;28;20432;-68
2022/04/11 12:43:15;;;;;;;9.03;4.77;;;;;;;;;;5112295;28;20032;-67
2022/04/11 12:45:42;;;;;;;12.90;4.63;;;;;;;;;;5112527;28;20062;-67
2022/04/11 12:48:09;;;;;;;7.83;4.93;;;;;;;;;;5112618;28;20027;-68
2022/04/11 12:50:37;;;;;;;8.70;4.90;;;;;;;;;;5107158;28;20036;-67
2022/04/11 12:53:05;;;;;;;9.90;4.73;;;;;;;;;;5106536;28;20016;-68
2022/04/11 12:55:32;;;;;;;7.73;4.10;;;;;;;;;;5107067;28;20024;-68
2022/04/11 12:58:11;;;;;;;8.83;4.57;;;;;;;;;;5107119;28;20059;-67
2022/04/11 13:00:42;;;;;;;7.67;4.60;;;;;;;;;;5111409;28;20435;-68
2022/04/11 13:03:08;;;;;;;8.37;5.77;;;;;;;;;;5112378;28;20019;-68
2022/04/11 13:05:35;;;;;;;9.50;5.27;;;;;;;;;;5111200;28;20497;-68
2022/04/11 13:08:06;;;;;;;6.87;4.80;;;;;;;;;;5112051;28;20519;-68
2022/04/11 13:10:32;;;;;;;13.30;5.97;;;;;;;;;;5112234;28;20489;-68
2022/04/11 13:13:01;;;;;;;12.10;6.83;;;;;;;;;;5107267;28;20112;-68
2022/04/11 13:15:30;;;;;;;13.20;7.07;;;;;;;;;;5107347;28;20067;-68
2022/04/11 13:20:42;;;;;;;15.07;7.13;;;;;;;;;;5111021;28;20038;-68
2022/04/11 13:23:08;;;;;;;11.67;6.27;;;;;;;;;;5115543;28;20378;-69
2022/04/11 13:25:36;;;;;;;13.17;6.63;;;;;;;;;;5116048;28;20473;-68
2022/04/11 13:28:03;;;;;;;13.43;7.03;;;;;;;;;;5115923;28;20028;-68
2022/04/11 13:30:29;;;;;;;19.23;8.07;;;;;;;;;;5115941;28;20036;-69
2022/04/11 13:32:58;;;;;;;20.60;9.70;;;;;;;;;;5115574;28;20509;-69
2022/04/11 13:35:25;;;;;;;28.60;11.87;;;;;;;;;;5110244;28;20023;-68
2022/04/11 13:37:51;;;;;;;23.20;12.03;;;;;;;;;;5109968;28;20066;-68
2022/04/11 13:40:18;;;;;;;29.67;14.23;;;;;;;;;;5110080;28;20023;-69
2022/04/11 13:42:45;;;;;;;22.27;11.83;;;;;;;;;;5110104;28;20087;-69
2022/04/11 13:45:12;;;;;;;25.73;12.80;;;;;;;;;;5114904;28;20035;-68
2022/04/11 13:47:38;;;;;;;26.03;11.60;;;;;;;;;;5115020;28;20034;-69
2022/04/11 13:50:05;;;;;;;24.00;11.67;;;;;;;;;;5115453;28;20035;-69
2022/04/11 13:52:32;;;;;;;24.97;12.17;;;;;;;;;;5115235;28;20051;-69
2022/04/11 13:54:59;;;;;;;22.47;12.37;;;;;;;;;;5115327;28;20051;-69
2022/04/11 13:57:26;;;;;;;22.63;11.43;;;;;;;;;;5110110;28;20089;-69
2022/04/11 13:59:52;;;;;;;22.83;10.67;;;;;;;;;;5109798;28;20102;-69
2022/04/11 14:02:19;;;;;;;22.43;11.73;;;;;;;;;;5109702;28;20072;-70
2022/04/11 14:04:46;;;;;;;23.27;11.37;;;;;;;;;;5109823;28;20020;-69
2022/04/11 14:07:13;;;;;;;20.33;10.67;;;;;;;;;;5113881;28;20058;-69
2022/04/11 14:09:40;;;;;;;19.67;9.47;;;;;;;;;;5115003;28;20452;-69
2022/04/11 14:12:08;;;;;;;24.00;9.50;;;;;;;;;;5115170;28;20505;-69
2022/04/11 14:14:35;;;;;;;19.77;10.37;;;;;;;;;;5114945;28;20051;-69
2022/04/11 14:17:01;;;;;;;20.10;9.37;;;;;;;;;;5114504;28;20020;-69
2022/04/11 14:19:28;;;;;;;22.10;10.87;;;;;;;;;;5109905;28;20035;-69
2022/04/11 14:21:55;;;;;;;20.20;10.20;;;;;;;;;;5109634;28;20782;-69
2022/04/11 14:24:22;;;;;;;26.43;10.00;;;;;;;;;;5109503;28;20043;-69
2022/04/11 14:26:48;;;;;;;23.67;10.27;;;;;;;;;;5108689;28;20049;-69
2022/04/11 14:29:15;;;;;;;17.20;9.37;;;;;;;;;;5112644;28;20028;-69
2022/04/11 14:31:42;;;;;;;19.97;11.33;;;;;;;;;;5114605;28;20024;-69
2022/04/11 14:34:08;;;;;;;19.23;9.30;;;;;;;;;;5114195;28;20030;-70
2022/04/11 14:36:35;;;;;;;17.57;8.80;;;;;;;;;;5114607;28;20023;-69
2022/04/11 14:39:02;;;;;;;17.20;9.37;;;;;;;;;;5114560;28;20023;-69
2022/04/11 14:41:28;;;;;;;16.73;9.23;;;;;;;;;;5109849;28;20057;-69
2022/04/11 14:43:55;;;;;;;16.43;8.20;;;;;;;;;;5108851;28;20114;-69
2022/04/11 14:46:22;;;;;;;17.13;8.43;;;;;;;;;;5108985;28;20015;-69
2022/04/11 14:48:50;;;;;;;14.37;7.70;;;;;;;;;;5108956;28;20033;-70